Lorentzos — SXTD — position and weather

sailwx.info

Track history (hours):
 
Tides and Currents Weather Stations Pressure Air Temp Water Temp Dewpoint Dewpoint Depression Visibility Wind Speed Wind Dir Waves Ship Positions

Lorentzos

Last reported at 2018-Jun-13 01:08 UTC. Time now 2018-Jun-18 13:15 UTC.
Position N 31°14' E 121°48'.

Length 190 m; draft 6.6 m.

Type: Cargo ship. MMSI: 240272000.

Date/timePositionNaut miles runAvg speedWind from/ knotsBaromVisibWave heightAir tempDewpointWater temp
2018-Jun-13 01:08N 31°14' E 121°48'613.2
2018-Jun-13 00:39N 31°09' E 121°53'213.1
2018-Jun-13 00:30N 31°08' E 121°55'811.7
2018-Jun-12 23:51N 31°05' E 122°03'412.1
2018-Jun-12 23:30N 31°03' E 122°08'510.6
2018-Jun-12 23:00N 31°03' E 122°14'510.2
2018-Jun-12 22:30N 31°02' E 122°20'510.1
2018-Jun-12 22:00N 31°01' E 122°25'612.1
2018-Jun-12 21:30N 30°60' E 122°32'4 8.3
2018-Jun-12 21:00N 31°00' E 122°37'2 4.3
2018-Jun-12 20:28N 31°01' E 122°40'0 0.1
2018-Jun-12 19:58N 31°01' E 122°40'0 0.0
2018-Jun-12 19:10N 31°01' E 122°40'0 0.0
2018-Jun-12 18:52N 31°01' E 122°40'0 0.1
2018-Jun-12 16:49N 31°01' E 122°40'0 0.0
2018-Jun-12 16:19N 31°01' E 122°40'0 0.2
2018-Jun-12 15:58N 31°01' E 122°40'0 0.0
2018-Jun-12 15:28N 31°01' E 122°40'0 0.1
2018-Jun-12 14:52N 31°01' E 122°40'0 0.0
2018-Jun-12 14:16N 31°01' E 122°40'0 0.1
2018-Jun-12 13:19N 31°01' E 122°39'0 0.0
2018-Jun-12 11:49N 31°01' E 122°39'0 0.2
2018-Jun-12 11:25N 31°01' E 122°39'0 0.1
2018-Jun-12 10:58N 31°01' E 122°39'0 0.1
2018-Jun-12 10:22N 31°01' E 122°39'0 0.2
2018-Jun-12 09:58N 31°01' E 122°39'0 0.1
2018-Jun-12 09:28N 31°01' E 122°40'0 0.1
2018-Jun-12 08:55N 31°01' E 122°40'0 0.0
2018-Jun-12 08:28N 31°01' E 122°40'0 0.0
2018-Jun-12 07:58N 31°01' E 122°40'0 0.1
2018-Jun-12 07:28N 31°01' E 122°40'0 0.0
2018-Jun-12 06:55N 31°01' E 122°40'0 0.0
2018-Jun-12 06:30N 31°01' E 122°40'2 2.9
2018-Jun-12 05:56N 31°00' E 122°41'17 0.3
2018-Jun-10 02:15N 31°01' E 122°21'414.7
2018-Jun-10 01:58N 31°02' E 122°17'611.3
2018-Jun-10 01:28N 31°03' E 122°10'612.7
2018-Jun-10 00:59N 31°04' E 122°03'611.4
2018-Jun-10 00:30N 31°07' E 121°57'511.0
2018-Jun-10 00:00N 31°10' E 121°52'  
Track history (hours):
 
Tides and Currents Weather Stations Pressure Air Temp Water Temp Dewpoint Dewpoint Depression Visibility Wind Speed Wind Dir Waves Ship Positions

Lorentzos

Last reported at 2018-Jun-13 01:08 UTC. Time now 2018-Jun-18 13:15 UTC.
Position N 31°14' E 121°48'.

Length 190 m; draft 6.6 m.

Type: Cargo ship. MMSI: 240272000.

Date/timePositionNaut miles runAvg speedWind from/ knotsBaromVisibWave heightAir tempDewpointWater temp
2018-Jun-13 01:08N 31°14' E 121°48'613.2
2018-Jun-13 00:39N 31°09' E 121°53'213.1
2018-Jun-13 00:30N 31°08' E 121°55'811.7
2018-Jun-12 23:51N 31°05' E 122°03'412.1
2018-Jun-12 23:30N 31°03' E 122°08'510.6
2018-Jun-12 23:00N 31°03' E 122°14'510.2
2018-Jun-12 22:30N 31°02' E 122°20'510.1
2018-Jun-12 22:00N 31°01' E 122°25'612.1
2018-Jun-12 21:30N 30°60' E 122°32'4 8.3
2018-Jun-12 21:00N 31°00' E 122°37'2 4.3
2018-Jun-12 20:28N 31°01' E 122°40'0 0.1
2018-Jun-12 19:58N 31°01' E 122°40'0 0.0
2018-Jun-12 19:10N 31°01' E 122°40'0 0.0
2018-Jun-12 18:52N 31°01' E 122°40'0 0.1
2018-Jun-12 16:49N 31°01' E 122°40'0 0.0
2018-Jun-12 16:19N 31°01' E 122°40'0 0.2
2018-Jun-12 15:58N 31°01' E 122°40'0 0.0
2018-Jun-12 15:28N 31°01' E 122°40'0 0.1
2018-Jun-12 14:52N 31°01' E 122°40'0 0.0
2018-Jun-12 14:16N 31°01' E 122°40'0 0.1
2018-Jun-12 13:19N 31°01' E 122°39'0 0.0
2018-Jun-12 11:49N 31°01' E 122°39'0 0.2
2018-Jun-12 11:25N 31°01' E 122°39'0 0.1
2018-Jun-12 10:58N 31°01' E 122°39'0 0.1
2018-Jun-12 10:22N 31°01' E 122°39'0 0.2
2018-Jun-12 09:58N 31°01' E 122°39'0 0.1
2018-Jun-12 09:28N 31°01' E 122°40'0 0.1
2018-Jun-12 08:55N 31°01' E 122°40'0 0.0
2018-Jun-12 08:28N 31°01' E 122°40'0 0.0
2018-Jun-12 07:58N 31°01' E 122°40'0 0.1
2018-Jun-12 07:28N 31°01' E 122°40'0 0.0
2018-Jun-12 06:55N 31°01' E 122°40'0 0.0
2018-Jun-12 06:30N 31°01' E 122°40'2 2.9
2018-Jun-12 05:56N 31°00' E 122°41'17 0.3
2018-Jun-10 02:15N 31°01' E 122°21'414.7
2018-Jun-10 01:58N 31°02' E 122°17'611.3
2018-Jun-10 01:28N 31°03' E 122°10'612.7
2018-Jun-10 00:59N 31°04' E 122°03'611.4
2018-Jun-10 00:30N 31°07' E 121°57'511.0
2018-Jun-10 00:00N 31°10' E 121°52'  

Dump ship's entire track history